Time;durP1;ratioP1;P1;durP2;ratioP2;P2;SDS_P1;SDS_P2;PMS_P1;PMS_P2;Temp;Humidity;BMP_temperature;BMP_pressure;BME280_temperature;BME280_humidity;BME280_pressure;Samples;Min_cycle;Max_cycle;Signal;HPM_P1;HPM_P2
2024/01/26 00:00:56;;;;;;;3.30;1.50;;;;;;;22.09;41.29;102312.78;4236024;28;20116;-53
2024/01/26 00:02:57;;;;;;;;;;;;;;;22.09;40.93;102315.47;4236468;27;20047;-53
2024/01/26 00:04:59;;;;;;;2.83;1.30;;;;;;;22.09;41.22;102311.91;4235582;28;20014;-52
2024/01/26 00:07:01;;;;;;;4.90;1.67;;;;;;;22.04;40.92;102312.16;4235793;27;20074;-52
2024/01/26 00:09:10;;;;;;;5.15;1.63;;;;;;;22.08;40.86;102319.09;4236227;27;20089;-51
2024/01/26 00:11:17;;;;;;;3.90;1.50;;;;;;;22.06;40.92;102315.63;4234671;28;20089;-53
2024/01/26 00:13:19;;;;;;;3.50;1.48;;;;;;;22.11;41.03;102324.25;4236114;27;20456;-50
2024/01/26 00:15:21;;;;;;;3.53;1.52;;;;;;;22.14;40.70;102326.78;4234625;27;20152;-52
2024/01/26 00:17:23;;;;;;;2.85;1.30;;;;;;;22.09;40.92;102330.66;4233318;28;20092;-50
2024/01/26 00:19:25;;;;;;;3.28;1.60;;;;;;;22.14;40.70;102329.44;4231578;28;20056;-48
2024/01/26 00:21:27;;;;;;;;;;;;;;;22.12;40.92;102327.81;4232420;28;20047;-53
2024/01/26 00:23:28;;;;;;;4.57;1.50;;;;;;;22.16;40.94;102316.84;4233881;28;19934;-52
2024/01/26 00:25:30;;;;;;;3.92;1.40;;;;;;;22.17;40.91;102309.66;4220359;28;20048;-48
2024/01/26 00:27:32;;;;;;;;;;;;;;;22.16;40.84;102298.06;4217432;28;20075;-53
2024/01/26 00:29:34;;;;;;;2.75;1.40;;;;;;;22.10;40.89;102292.19;4216788;28;19924;-51
2024/01/26 00:31:36;;;;;;;4.00;1.60;;;;;;;22.08;41.09;102289.63;4216268;28;20074;-48
2024/01/26 00:33:38;;;;;;;3.10;1.35;;;;;;;22.05;40.87;102289.78;4215986;28;20079;-49
2024/01/26 00:35:39;;;;;;;;;;;;;;;21.99;41.07;102285.69;4216437;28;20368;-48
2024/01/26 00:37:41;;;;;;;3.37;1.40;;;;;;;21.98;41.43;102288.44;4216701;28;19920;-51
2024/01/26 00:39:43;;;;;;;3.25;1.50;;;;;;;21.99;41.09;102291.03;4216711;28;20658;-54
2024/01/26 00:41:45;;;;;;;3.28;1.38;;;;;;;21.96;41.06;102293.03;4215352;28;20044;-51
2024/01/26 00:43:47;;;;;;;3.67;1.40;;;;;;;22.05;40.92;102305.00;4217253;28;20083;-49
2024/01/26 00:45:49;;;;;;;3.33;1.52;;;;;;;22.09;40.93;102307.44;4215516;28;20074;-47
2024/01/26 00:47:51;;;;;;;3.92;1.55;;;;;;;22.12;41.03;102303.69;4215310;28;20044;-51
2024/01/26 00:49:53;;;;;;;3.50;1.42;;;;;;;22.14;40.96;102301.78;4217344;28;20036;-49
2024/01/26 00:51:56;;;;;;;3.08;1.17;;;;;;;22.15;40.80;102301.69;4215996;28;20503;-53
2024/01/26 00:53:58;;;;;;;3.38;1.33;;;;;;;22.16;40.95;102294.50;4217600;28;20135;-50
2024/01/26 00:56:00;;;;;;;3.38;1.50;;;;;;;22.16;41.01;102284.69;4223431;28;20044;-51
2024/01/26 00:58:02;;;;;;;3.70;1.50;;;;;;;22.14;40.65;102280.34;4232523;27;20043;-52
2024/01/26 01:00:07;;;;;;;3.30;1.30;;;;;;;22.15;41.12;102282.06;4232361;28;20108;-51
2024/01/26 01:02:09;;;;;;;3.53;1.38;;;;;;;22.16;40.68;102284.69;4232092;28;20085;-51
2024/01/26 01:04:10;;;;;;;3.08;1.40;;;;;;;22.15;40.59;102279.38;4231710;28;20044;-49
2024/01/26 01:06:12;;;;;;;3.22;1.38;;;;;;;22.07;41.03;102266.47;4230913;28;20130;-51
2024/01/26 01:08:14;;;;;;;3.75;1.50;;;;;;;22.07;40.75;102255.75;4231998;28;20043;-49
2024/01/26 01:10:15;;;;;;;3.78;1.60;;;;;;;22.05;41.37;102262.16;4232112;28;20066;-51
2024/01/26 01:12:17;;;;;;;;;;;;;;;22.02;41.07;102261.38;4232371;28;20039;-48
2024/01/26 01:14:19;;;;;;;3.55;1.40;;;;;;;21.93;41.11;102259.22;4231694;28;19951;-53
2024/01/26 01:16:20;;;;;;;;;;;;;;;21.96;41.09;102264.41;4231387;28;20051;-47
2024/01/26 01:18:22;;;;;;;4.10;1.48;;;;;;;21.91;41.06;102265.63;4231244;28;19920;-48
2024/01/26 01:20:24;;;;;;;;;;;;;;;21.91;41.30;102274.56;4232228;28;20048;-48
2024/01/26 01:22:26;;;;;;;4.10;1.70;;;;;;;21.90;41.19;102275.50;4231941;28;20378;-47
2024/01/26 01:24:28;;;;;;;4.22;1.58;;;;;;;21.92;41.50;102268.25;4227243;28;20071;-50
2024/01/26 01:26:29;;;;;;;4.32;1.60;;;;;;;21.81;41.47;102258.16;4214842;28;20044;-52
2024/01/26 01:28:31;;;;;;;3.40;1.77;;;;;;;21.85;41.62;102256.16;4214403;28;20051;-52
2024/01/26 01:30:33;;;;;;;4.70;1.73;;;;;;;21.79;41.37;102259.22;4214805;28;20116;-53
2024/01/26 01:32:35;;;;;;;3.42;1.90;;;;;;;21.78;41.59;102262.84;4214454;28;20072;-51
2024/01/26 01:34:37;;;;;;;3.85;1.50;;;;;;;21.82;41.24;102267.03;4214899;28;20044;-50
2024/01/26 01:36:38;;;;;;;4.97;1.88;;;;;;;21.82;41.82;102267.03;4214855;28;20048;-48
2024/01/26 01:38:40;;;;;;;4.25;1.70;;;;;;;21.85;41.36;102277.59;4214643;28;20047;-50
2024/01/26 01:40:43;;;;;;;3.53;1.70;;;;;;;21.82;41.56;102278.63;4214656;28;20136;-49
2024/01/26 01:42:46;;;;;;;3.72;1.65;;;;;;;21.81;41.26;102274.22;4214374;28;20074;-48
2024/01/26 01:44:47;;;;;;;2.97;1.30;;;;;;;21.81;41.54;102273.34;4214669;28;20044;-48
2024/01/26 01:46:49;;;;;;;3.67;1.70;;;;;;;21.82;41.37;102275.06;4214244;28;20051;-49
2024/01/26 01:48:51;;;;;;;4.07;1.73;;;;;;;21.81;41.51;102276.03;4214517;28;20075;-51
2024/01/26 01:50:54;;;;;;;4.60;1.60;;;;;;;21.80;41.76;102277.84;4214574;28;20040;-51
2024/01/26 01:52:58;;;;;;;3.88;1.60;;;;;;;21.76;41.52;102281.66;4214366;28;20058;-49
2024/01/26 01:55:01;;;;;;;3.63;1.73;;;;;;;21.79;41.62;102286.00;4214997;28;20097;-50
2024/01/26 01:57:04;;;;;;;4.13;1.80;;;;;;;21.81;41.48;102292.09;4231244;28;20055;-52
2024/01/26 01:59:08;;;;;;;3.78;1.65;;;;;;;21.79;41.51;102284.16;4230885;28;20473;-49
2024/01/26 02:01:10;;;;;;;4.35;1.75;;;;;;;21.80;41.86;102277.84;4230471;28;20050;-49
2024/01/26 02:03:12;;;;;;;4.45;1.80;;;;;;;21.77;41.65;102263.78;4230934;28;20047;-51
2024/01/26 02:05:15;;;;;;;4.22;1.70;;;;;;;21.77;41.70;102266.47;4231122;28;20063;-48
2024/01/26 02:07:16;;;;;;;3.88;1.70;;;;;;;21.75;41.48;102255.84;4231104;28;20088;-49
2024/01/26 02:09:18;;;;;;;4.30;1.77;;;;;;;21.78;41.80;102262.84;4231160;28;20650;-49
2024/01/26 02:11:20;;;;;;;4.70;1.70;;;;;;;21.75;41.65;102260.31;4230947;28;20128;-50
2024/01/26 02:13:22;;;;;;;4.75;1.55;;;;;;;21.80;41.86;102260.91;4231012;28;20074;-50
2024/01/26 02:15:23;;;;;;;6.00;1.80;;;;;;;21.82;41.51;102259.88;4230679;28;20055;-52
2024/01/26 02:17:32;;;;;;;4.40;1.88;;;;;;;21.81;41.80;102262.63;4230884;28;20068;-50
2024/01/26 02:19:34;;;;;;;5.30;1.90;;;;;;;21.78;41.94;102254.78;4230861;28;20054;-48
2024/01/26 02:21:35;;;;;;;4.57;1.70;;;;;;;21.75;41.81;102253.16;4230823;28;20074;-49
2024/01/26 02:23:41;;;;;;;;;;;;;;;21.75;41.67;102247.81;4231317;27;20094;-48
2024/01/26 02:25:43;;;;;;;2.58;1.50;;;;;;;21.75;41.98;102238.91;4215679;28;20383;-47
2024/01/26 02:27:45;;;;;;;4.85;1.70;;;;;;;21.75;41.96;102244.25;4214023;28;20097;-51
2024/01/26 02:29:47;;;;;;;5.65;1.60;;;;;;;21.64;42.15;102226.13;4213481;28;20115;-48
2024/01/26 02:31:49;;;;;;;;;;;;;;;21.71;41.92;102248.94;4214326;28;20472;-47
2024/01/26 02:33:51;;;;;;;5.03;1.85;;;;;;;21.69;41.69;102248.19;4214062;28;19946;-48
2024/01/26 02:35:52;;;;;;;;;;;;;;;21.77;41.83;102245.88;4214087;28;20052;-49
2024/01/26 02:37:54;;;;;;;2.75;1.40;;;;;;;21.84;41.73;102233.00;4213862;28;19920;-47
2024/01/26 02:39:56;;;;;;;3.60;1.60;;;;;;;21.80;41.62;102239.47;4212221;28;20102;-48
2024/01/26 02:41:57;;;;;;;4.47;2.00;;;;;;;21.80;41.42;102239.47;4213514;28;20040;-51
2024/01/26 02:43:59;;;;;;;4.00;1.80;;;;;;;21.76;41.59;102244.16;4213674;28;20518;-50
2024/01/26 02:46:00;;;;;;;4.93;2.05;;;;;;;21.74;41.79;102238.03;4213578;28;20055;-48
2024/01/26 02:48:02;;;;;;;4.32;1.83;;;;;;;21.73;41.72;102230.13;4213832;28;20562;-47
2024/01/26 02:50:05;;;;;;;4.75;2.10;;;;;;;21.65;42.06;102233.22;4213569;28;20048;-48
2024/01/26 02:52:07;;;;;;;4.40;1.83;;;;;;;21.65;42.24;102241.25;4213847;28;20155;-46
2024/01/26 02:54:09;;;;;;;7.47;1.83;;;;;;;21.64;41.88;102234.16;4213484;28;20131;-49
2024/01/26 02:56:10;;;;;;;4.95;2.00;;;;;;;21.70;41.81;102221.28;4224434;28;20566;-51
2024/01/26 02:58:12;;;;;;;4.20;1.70;;;;;;;21.62;42.10;102218.19;4230320;28;20047;-51
2024/01/26 03:00:14;;;;;;;3.30;1.50;;;;;;;21.62;42.13;102220.03;4229828;28;20051;-50
2024/01/26 03:02:16;;;;;;;3.95;1.80;;;;;;;21.60;41.80;102206.72;4230628;28;20048;-50
2024/01/26 03:04:20;;;;;;;4.95;1.70;;;;;;;21.65;42.24;102218.03;4229069;28;20550;-50
2024/01/26 03:06:22;;;;;;;4.30;1.60;;;;;;;21.65;41.72;102211.81;4230254;28;20131;-48
2024/01/26 03:08:24;;;;;;;4.63;1.80;;;;;;;21.64;41.90;102210.94;4230309;28;20046;-51
2024/01/26 03:10:25;;;;;;;4.82;1.95;;;;;;;21.65;41.72;102214.47;4230121;28;20269;-50
2024/01/26 03:12:28;;;;;;;4.18;1.80;;;;;;;21.66;42.01;102217.06;4230286;28;20104;-49
2024/01/26 03:14:29;;;;;;;4.93;1.90;;;;;;;21.67;41.73;102223.28;4229790;28;20425;-50
2024/01/26 03:16:33;;;;;;;4.18;1.58;;;;;;;21.70;41.86;102223.09;4230412;28;20137;-52
2024/01/26 03:18:34;;;;;;;3.45;1.45;;;;;;;21.69;41.54;102224.94;4230151;28;20063;-52
2024/01/26 03:20:36;;;;;;;;;;;;;;;21.71;41.50;102224.81;4230286;28;20093;-52
2024/01/26 03:22:38;;;;;;;4.40;1.50;;;;;;;21.72;42.00;102223.88;4230261;28;19927;-52
2024/01/26 03:24:39;;;;;;;4.38;1.60;;;;;;;21.70;41.91;102225.78;4224042;28;20040;-54
2024/01/26 03:26:41;;;;;;;3.67;1.50;;;;;;;21.73;41.61;102220.25;4212111;28;20067;-49
2024/01/26 03:28:43;;;;;;;4.60;1.60;;;;;;;21.74;41.59;102218.41;4213045;28;20047;-48
2024/01/26 03:30:45;;;;;;;4.80;1.83;;;;;;;21.75;41.53;102212.13;4213273;28;20422;-52
2024/01/26 03:32:49;;;;;;;3.22;1.67;;;;;;;21.77;41.65;102218.25;4213256;28;20044;-52
2024/01/26 03:34:51;;;;;;;3.88;1.65;;;;;;;21.72;41.74;102210.50;4211972;28;20064;-52
2024/01/26 03:36:52;;;;;;;;;;;;;;;21.77;41.58;102218.25;4213529;28;20044;-50
2024/01/26 03:38:54;;;;;;;3.47;1.55;;;;;;;21.71;41.58;102206.09;4213329;28;20378;-55
2024/01/26 03:40:56;;;;;;;5.38;1.75;;;;;;;21.63;41.70;102213.69;4212171;28;20055;-54
2024/01/26 03:42:57;;;;;;;4.85;1.73;;;;;;;21.65;42.12;102215.34;4212622;28;20139;-48
2024/01/26 03:45:00;;;;;;;4.07;1.77;;;;;;;21.65;41.63;102203.78;4213201;28;20150;-50
2024/01/26 03:47:01;;;;;;;5.55;1.77;;;;;;;21.63;41.67;102200.31;4213294;28;20040;-51
2024/01/26 03:49:03;;;;;;;3.65;1.52;;;;;;;21.64;41.78;102192.22;4213262;28;20070;-50
2024/01/26 03:51:05;;;;;;;5.53;1.98;;;;;;;21.65;41.92;102195.75;4213968;28;20043;-52
2024/01/26 03:53:07;;;;;;;4.60;1.85;;;;;;;21.71;41.61;102208.75;4216546;28;20070;-52
2024/01/26 03:55:09;;;;;;;3.55;1.60;;;;;;;21.71;41.55;102206.09;4218324;28;20446;-49
2024/01/26 03:57:11;;;;;;;4.38;1.65;;;;;;;21.69;41.74;102206.19;4232770;28;20468;-50
2024/01/26 03:59:12;;;;;;;;;;;;;;;21.61;41.75;102208.44;4233588;28;20101;-48
2024/01/26 04:01:14;;;;;;;4.97;1.85;;;;;;;21.60;41.68;102203.19;4232935;28;19954;-50
2024/01/26 04:03:16;;;;;;;4.40;1.80;;;;;;;21.62;42.02;102212.84;4232862;28;20048;-50
2024/01/26 04:05:17;;;;;;;4.30;1.95;;;;;;;21.62;41.51;102203.97;4232789;28;20079;-50
2024/01/26 04:07:19;;;;;;;4.95;1.90;;;;;;;21.60;41.78;102189.81;4233062;28;20043;-49
2024/01/26 04:09:21;;;;;;;4.80;2.05;;;;;;;21.64;41.94;102196.69;4233015;28;20492;-51
2024/01/26 04:11:22;;;;;;;3.95;1.70;;;;;;;21.69;41.78;102191.94;4232530;28;20043;-48
2024/01/26 04:13:24;;;;;;;4.28;1.92;;;;;;;21.70;41.93;102197.19;4233038;28;20487;-51
2024/01/26 04:15:25;;;;;;;4.07;1.75;;;;;;;21.72;41.56;102190.91;4232840;28;20048;-48
2024/01/26 04:17:27;;;;;;;4.13;1.70;;;;;;;21.68;41.58;102184.84;4232845;28;20044;-50
2024/01/26 04:19:29;;;;;;;8.95;2.05;;;;;;;21.67;41.78;102186.66;4232785;28;20426;-49
2024/01/26 04:21:31;;;;;;;;;;;;;;;21.65;41.76;102198.41;4233066;28;20363;-50
2024/01/26 04:23:32;;;;;;;5.13;2.30;;;;;;;21.66;41.84;102201.00;4232772;28;20426;-51
2024/01/26 04:25:34;;;;;;;4.95;2.08;;;;;;;21.65;41.87;102201.97;4217646;28;20489;-49
2024/01/26 04:27:37;;;;;;;5.03;1.85;;;;;;;21.63;41.66;102195.84;4215890;28;20154;-53
2024/01/26 04:29:38;;;;;;;4.90;1.90;;;;;;;21.65;41.52;102195.75;4215922;28;20451;-52
2024/01/26 04:31:44;;;;;;;5.80;1.80;;;;;;;21.73;41.64;102197.97;4215509;28;20040;-51
2024/01/26 04:33:45;;;;;;;4.72;2.15;;;;;;;21.63;41.46;102201.19;4215651;28;20487;-52
2024/01/26 04:35:48;;;;;;;4.10;2.03;;;;;;;21.55;41.83;102198.06;4215714;28;20097;-50
2024/01/26 04:37:52;;;;;;;4.63;2.00;;;;;;;21.50;41.92;102195.66;4214434;28;20475;-52
2024/01/26 04:39:55;;;;;;;4.80;1.83;;;;;;;21.47;41.89;102195.84;4215364;28;20040;-52
2024/01/26 04:41:56;;;;;;;5.00;2.17;;;;;;;21.46;41.68;102195.91;4215284;28;20044;-52
2024/01/26 04:43:58;;;;;;;4.28;1.95;;;;;;;21.45;41.80;102195.06;4215466;28;20043;-52
2024/01/26 04:45:59;;;;;;;4.18;1.95;;;;;;;21.49;42.02;102198.44;4215645;28;20040;-51
2024/01/26 04:48:03;;;;;;;;;;;;;;;21.42;41.98;102207.75;4216050;28;20059;-50
2024/01/26 04:50:05;;;;;;;5.75;2.03;;;;;;;21.43;41.85;102207.66;4215288;28;19919;-51
2024/01/26 04:52:06;;;;;;;;;;;;;;;21.43;41.74;102206.81;4215952;28;20124;-51
2024/01/26 04:54:08;;;;;;;5.05;2.10;;;;;;;21.40;41.75;102215.88;4215085;28;19920;-49
2024/01/26 04:56:13;;;;;;;5.30;1.83;;;;;;;21.46;41.99;102211.97;4225619;28;20479;-51
2024/01/26 04:58:14;;;;;;;4.45;1.80;;;;;;;21.50;42.00;102214.38;4232190;28;20054;-48
2024/01/26 05:00:18;;;;;;;4.75;1.83;;;;;;;21.54;41.90;102212.41;4231761;28;20499;-49
2024/01/26 05:02:21;;;;;;;3.85;1.65;;;;;;;21.47;42.08;102213.69;4231734;28;20063;-52
2024/01/26 05:04:22;;;;;;;4.28;1.88;;;;;;;21.42;41.88;102215.78;4231801;28;20039;-49
2024/01/26 05:06:24;;;;;;;4.40;1.80;;;;;;;21.47;41.90;102206.56;4232282;28;20066;-48
2024/01/26 05:08:26;;;;;;;;;;;;;;;21.49;42.10;102209.13;4231295;28;20077;-48
2024/01/26 05:10:28;;;;;;;5.15;2.05;;;;;;;21.54;41.67;102210.59;4231795;28;19965;-50
2024/01/26 05:12:29;;;;;;;3.63;1.70;;;;;;;21.50;41.85;102210.88;4230485;28;20045;-50
2024/01/26 05:14:33;;;;;;;5.03;1.65;;;;;;;21.49;41.82;102201.09;4232086;28;20181;-51
2024/01/26 05:16:35;;;;;;;5.70;1.95;;;;;;;21.49;41.88;102204.63;4231732;28;20120;-51
2024/01/26 05:18:37;;;;;;;4.25;2.00;;;;;;;21.57;41.81;102196.19;4232017;28;20039;-52
2024/01/26 05:20:40;;;;;;;5.35;1.95;;;;;;;21.58;41.96;102186.34;4231471;28;20509;-50
2024/01/26 05:22:42;;;;;;;4.50;1.73;;;;;;;21.53;42.12;102186.56;4231845;28;20422;-50
2024/01/26 05:24:43;;;;;;;5.05;2.38;;;;;;;21.40;41.95;102165.03;4224891;28;20479;-51
2024/01/26 05:26:45;;;;;;;4.10;1.80;;;;;;;21.47;42.00;102174.44;4214968;28;20040;-52
2024/01/26 05:28:47;;;;;;;4.47;1.90;;;;;;;21.50;42.26;102158.19;4214851;28;20044;-51
2024/01/26 05:30:48;;;;;;;4.88;1.77;;;;;;;21.45;42.18;102175.47;4214490;28;20054;-51
2024/01/26 05:32:50;;;;;;;5.32;2.00;;;;;;;21.43;42.26;102178.22;4214786;28;20048;-51
2024/01/26 05:34:52;;;;;;;;;;;;;;;21.42;42.46;102171.13;4214111;28;20396;-46
2024/01/26 05:36:53;;;;;;;5.95;2.03;;;;;;;21.39;42.14;102182.88;4214820;28;19926;-48
2024/01/26 05:38:55;;;;;;;4.15;1.80;;;;;;;21.43;42.53;102177.38;4214041;28;20131;-47
2024/01/26 05:40:57;;;;;;;;;;;;;;;21.41;42.25;102185.50;4215158;28;20040;-49
2024/01/26 05:42:59;;;;;;;3.35;1.70;;;;;;;21.40;42.05;102197.16;4214341;28;19970;-48
2024/01/26 05:45:02;;;;;;;4.60;1.60;;;;;;;21.45;42.35;102211.13;4214475;28;20048;-51
2024/01/26 05:47:04;;;;;;;4.13;1.75;;;;;;;21.50;42.17;102208.19;4214511;28;20071;-51
2024/01/26 05:49:06;;;;;;;5.00;1.83;;;;;;;21.54;41.87;102204.38;4214486;28;20396;-51
2024/01/26 05:51:12;;;;;;;4.40;1.77;;;;;;;21.55;41.95;102211.44;4214390;28;20040;-50
2024/01/26 05:53:13;;;;;;;5.53;2.00;;;;;;;21.54;41.89;102204.38;4212661;28;20070;-51
2024/01/26 05:55:15;;;;;;;6.00;1.95;;;;;;;21.52;42.33;102208.97;4217314;28;20048;-50
2024/01/26 05:57:17;;;;;;;3.97;1.88;;;;;;;21.55;41.88;102211.44;4231631;28;20043;-52
2024/01/26 05:59:19;;;;;;;6.32;1.88;;;;;;;21.53;41.81;102208.00;4230991;28;20055;-49
2024/01/26 06:01:20;;;;;;;4.45;2.00;;;;;;;21.52;42.31;102209.81;4230998;28;20058;-51
2024/01/26 06:03:22;;;;;;;;;;;;;;;21.53;42.08;102208.00;4231427;28;20071;-52
2024/01/26 06:05:24;;;;;;;5.00;1.83;;;;;;;21.54;42.02;102212.41;4231171;28;20070;-52
2024/01/26 06:07:26;;;;;;;4.55;1.67;;;;;;;21.55;41.96;102209.63;4230880;28;20061;-52
2024/01/26 06:09:27;;;;;;;6.05;1.90;;;;;;;21.53;42.19;102213.34;4230881;28;20067;-50
2024/01/26 06:11:29;;;;;;;5.75;1.92;;;;;;;21.49;42.42;102212.66;4230923;28;20044;-51
2024/01/26 06:13:31;;;;;;;;;;;;;;;21.54;42.05;102220.44;4230743;28;20043;-50
2024/01/26 06:15:32;;;;;;;4.15;1.70;;;;;;;21.52;42.14;102223.19;4230629;28;20019;-51
2024/01/26 06:17:35;;;;;;;5.10;1.83;;;;;;;21.58;42.28;102227.38;4230939;28;20079;-50
2024/01/26 06:19:37;;;;;;;4.60;1.95;;;;;;;21.56;42.19;102223.88;4230856;28;20089;-53
2024/01/26 06:21:39;;;;;;;5.43;1.90;;;;;;;21.60;41.86;102212.06;4230448;28;20047;-50
2024/01/26 06:23:41;;;;;;;6.05;1.80;;;;;;;21.60;41.91;102222.78;4230695;28;20122;-52
2024/01/26 06:25:43;;;;;;;4.95;2.10;;;;;;;21.57;41.86;102219.41;4215568;28;20048;-52
2024/01/26 06:27:44;;;;;;;4.47;1.90;;;;;;;21.52;42.08;102220.53;4213760;28;20079;-50
2024/01/26 06:29:46;;;;;;;6.22;1.83;;;;;;;21.50;41.98;102216.22;4213782;28;20068;-51
2024/01/26 06:31:48;;;;;;;4.82;1.50;;;;;;;21.48;41.95;102212.75;4213693;28;20260;-52
2024/01/26 06:33:50;;;;;;;6.57;2.03;;;;;;;21.55;42.10;102225.69;4213718;28;20044;-49
2024/01/26 06:35:53;;;;;;;3.35;1.55;;;;;;;21.58;42.24;102227.38;4214055;28;20044;-50
2024/01/26 06:37:54;;;;;;;;;;;;;;;21.58;41.81;102232.72;4213863;28;20055;-50
2024/01/26 06:39:56;;;;;;;4.18;1.60;;;;;;;21.66;41.82;102224.25;4213639;28;19924;-49
2024/01/26 06:41:57;;;;;;;6.35;1.95;;;;;;;21.59;42.07;102228.22;4213714;28;20048;-48
2024/01/26 06:43:59;;;;;;;5.00;2.15;;;;;;;21.58;41.97;102230.06;4213498;28;20044;-48
2024/01/26 06:46:01;;;;;;;4.38;1.90;;;;;;;21.63;42.19;102236.00;4213772;28;20044;-48
2024/01/26 06:48:03;;;;;;;5.97;1.92;;;;;;;21.63;42.25;102245.81;4213712;28;20055;-50
2024/01/26 06:50:07;;;;;;;6.13;2.15;;;;;;;21.60;42.15;102236.16;4213692;28;20098;-51
2024/01/26 06:52:13;;;;;;;5.53;1.95;;;;;;;21.54;42.15;102236.50;4213153;28;20040;-48
2024/01/26 06:54:15;;;;;;;5.20;1.70;;;;;;;21.60;42.14;102244.19;4213390;28;20173;-52
2024/01/26 06:56:17;;;;;;;;;;;;;;;21.57;41.99;102248.88;4225839;28;20428;-49
2024/01/26 06:58:18;;;;;;;4.30;1.85;;;;;;;21.57;42.03;102248.88;4230221;28;19920;-53
2024/01/26 07:00:20;;;;;;;5.85;1.88;;;;;;;21.59;42.29;102250.50;4230041;28;20143;-53
2024/01/26 07:02:22;;;;;;;5.00;2.10;;;;;;;21.62;42.10;102253.00;4230419;28;20108;-52
2024/01/26 07:04:24;;;;;;;6.03;1.92;;;;;;;21.62;42.16;102236.09;4229168;28;20071;-51
2024/01/26 07:06:26;;;;;;;4.30;1.83;;;;;;;21.63;42.00;102248.50;4229962;28;20085;-52
2024/01/26 07:08:27;;;;;;;5.35;1.88;;;;;;;21.65;42.46;102243.94;4230176;28;20046;-52
2024/01/26 07:10:29;;;;;;;5.00;1.85;;;;;;;21.61;42.04;102250.44;4230076;28;20052;-52
2024/01/26 07:12:30;;;;;;;4.97;1.80;;;;;;;21.58;42.44;102251.47;4230518;28;20054;-54
2024/01/26 07:14:32;;;;;;;6.30;1.80;;;;;;;21.62;42.28;102244.13;4230442;28;20072;-52
2024/01/26 07:16:34;;;;;;;6.25;1.73;;;;;;;21.61;42.01;102251.28;4230079;28;20074;-54
2024/01/26 07:18:35;;;;;;;6.88;1.88;;;;;;;21.60;42.44;102252.22;4230086;28;20126;-51
2024/01/26 07:20:37;;;;;;;5.32;1.90;;;;;;;21.60;42.27;102246.03;4229749;28;20122;-52
2024/01/26 07:22:41;;;;;;;5.13;1.75;;;;;;;21.60;42.10;102254.91;4230091;28;20070;-51
2024/01/26 07:24:43;;;;;;;3.88;1.60;;;;;;;21.58;42.11;102254.16;4223752;28;20127;-53
2024/01/26 07:26:46;;;;;;;5.65;1.73;;;;;;;21.62;42.10;102262.88;4216638;28;20044;-53
2024/01/26 07:28:48;;;;;;;7.05;2.15;;;;;;;21.64;42.31;102272.53;4216431;28;20056;-49
2024/01/26 07:30:50;;;;;;;;;;;;;;;21.62;42.17;102270.91;4216849;28;20495;-52
2024/01/26 07:32:51;;;;;;;8.73;2.17;;;;;;;21.64;42.60;102277.00;4216305;28;20015;-52
2024/01/26 07:34:53;;;;;;;;;;;;;;;21.62;42.16;102273.56;4215248;28;20040;-49
2024/01/26 07:36:55;;;;;;;5.35;1.90;;;;;;;21.63;42.61;102277.97;4217127;28;20329;-51
2024/01/26 07:38:56;;;;;;;6.40;2.30;;;;;;;21.61;42.31;102285.25;4216628;28;20101;-49
2024/01/26 07:40:58;;;;;;;;;;;;;;;21.65;42.71;102278.75;4216774;28;20065;-49
2024/01/26 07:43:00;;;;;;;5.28;1.90;;;;;;;21.65;42.24;102287.66;4216318;28;19951;-46
2024/01/26 07:45:02;;;;;;;4.88;1.90;;;;;;;21.68;42.38;102286.59;4215305;28;20059;-51
2024/01/26 07:47:03;;;;;;;;;;;;;;;21.69;42.26;102288.34;4216823;28;20052;-52
2024/01/26 07:49:05;;;;;;;5.10;2.10;;;;;;;21.68;42.48;102295.50;4215940;28;20002;-54
2024/01/26 07:51:07;;;;;;;5.22;1.90;;;;;;;21.68;42.59;102289.28;4215134;28;20477;-54
2024/01/26 07:53:09;;;;;;;8.13;2.15;;;;;;;21.69;42.32;102288.34;4216345;28;20468;-53
2024/01/26 07:55:11;;;;;;;5.47;1.70;;;;;;;21.65;42.57;102286.78;4218685;28;20044;-48
2024/01/26 07:57:13;;;;;;;6.03;2.00;;;;;;;21.64;42.35;102295.75;4232696;28;20050;-49
2024/01/26 07:59:15;;;;;;;7.20;1.90;;;;;;;21.64;42.79;102311.81;4232798;28;20101;-50
2024/01/26 08:01:17;;;;;;;7.63;2.10;;;;;;;21.65;42.73;102300.16;4232931;28;20099;-46
2024/01/26 08:03:19;;;;;;;5.60;1.67;;;;;;;21.63;42.74;102299.38;4232635;28;20176;-50
2024/01/26 08:05:20;;;;;;;;;;;;;;;21.62;42.67;102287.81;4233375;28;20055;-50
2024/01/26 08:07:22;;;;;;;5.22;1.80;;;;;;;21.61;42.80;102307.50;4231829;28;20278;-50
2024/01/26 08:09:24;;;;;;;;;;;;;;;21.64;42.80;102307.34;4233315;27;20059;-47
2024/01/26 08:11:26;;;;;;;4.55;1.80;;;;;;;21.64;42.76;102309.13;4232899;28;19919;-47
2024/01/26 08:13:28;;;;;;;4.10;1.60;;;;;;;21.66;43.00;102318.81;4232743;28;20051;-48
2024/01/26 08:15:30;;;;;;;5.22;1.85;;;;;;;21.69;42.77;102324.00;4232681;28;20130;-50
2024/01/26 08:17:32;;;;;;;5.22;2.10;;;;;;;21.68;42.95;102327.63;4232678;28;20407;-54
2024/01/26 08:19:35;;;;;;;4.53;1.63;;;;;;;21.69;42.77;102328.50;4231009;28;20051;-50
2024/01/26 08:21:37;;;;;;;5.93;1.58;;;;;;;21.68;42.78;102327.63;4232463;28;20074;-54
2024/01/26 08:23:38;;;;;;;5.28;1.60;;;;;;;21.67;42.87;102339.28;4232685;28;20556;-49
2024/01/26 08:25:40;;;;;;;;;;;;;;;21.64;43.12;102341.25;4218136;28;20138;-51
2024/01/26 08:27:42;;;;;;;5.13;1.77;;;;;;;21.61;43.30;102346.81;4215645;28;19977;-50
2024/01/26 08:29:43;;;;;;;4.30;1.40;;;;;;;21.62;43.17;102348.53;4215677;28;20135;-51
2024/01/26 08:31:45;;;;;;;;;;;;;;;21.61;43.04;102355.69;4216005;28;20127;-50
2024/01/26 08:33:47;;;;;;;4.32;1.55;;;;;;;21.61;42.91;102353.03;4215258;28;19927;-51
2024/01/26 08:35:49;;;;;;;3.50;1.15;;;;;;;21.61;43.21;102354.84;4215611;28;20487;-52
2024/01/26 08:37:51;;;;;;;3.72;1.40;;;;;;;21.66;43.09;102355.44;4214788;28;20131;-54
2024/01/26 08:39:54;;;;;;;4.30;1.30;;;;;;;21.69;42.76;102358.81;4215283;28;20467;-50
2024/01/26 08:41:56;;;;;;;4.00;1.50;;;;;;;21.69;43.01;102356.13;4215634;28;20075;-51
2024/01/26 08:43:57;;;;;;;4.45;1.67;;;;;;;21.67;43.22;102363.38;4215613;28;20067;-51
2024/01/26 08:45:59;;;;;;;5.97;1.40;;;;;;;21.69;42.93;102368.66;4215624;28;20044;-53
2024/01/26 08:48:01;;;;;;;;;;;;;;;21.67;42.81;102370.56;4215713;28;20491;-52
2024/01/26 08:50:03;;;;;;;5.35;1.30;;;;;;;21.65;42.94;102373.34;4215415;28;20183;-50
2024/01/26 08:52:05;;;;;;;3.05;1.20;;;;;;;21.69;43.06;102368.66;4215357;28;20048;-52
2024/01/26 08:54:07;;;;;;;4.15;1.40;;;;;;;21.70;43.29;102383.75;4215536;28;20040;-50
2024/01/26 08:56:09;;;;;;;2.38;1.10;;;;;;;21.69;42.77;102388.25;4225732;28;20047;-52
2024/01/26 08:58:11;;;;;;;;;;;;;;;21.70;43.14;102381.09;4232686;28;20054;-52
2024/01/26 09:00:15;;;;;;;4.03;1.40;;;;;;;21.72;43.39;102379.19;4231872;28;19919;-53
2024/01/26 09:02:17;;;;;;;3.85;1.35;;;;;;;21.76;42.91;102382.56;4231873;28;20044;-52
2024/01/26 09:04:19;;;;;;;3.28;1.27;;;;;;;21.79;42.88;102379.72;4231926;27;20422;-52
2024/01/26 09:06:20;;;;;;;2.78;1.17;;;;;;;21.86;42.89;102387.31;4232084;28;20047;-48
2024/01/26 09:08:22;;;;;;;3.60;1.63;;;;;;;21.85;43.01;102384.72;4231840;28;20044;-48
2024/01/26 09:10:24;;;;;;;3.67;1.33;;;;;;;21.83;42.86;102390.16;4230898;28;20140;-48
2024/01/26 09:12:26;;;;;;;3.85;1.30;;;;;;;21.82;43.17;102385.78;4230695;28;20043;-52
2024/01/26 09:14:28;;;;;;;3.63;1.20;;;;;;;21.81;43.30;102391.19;4232076;28;20071;-49
2024/01/26 09:16:30;;;;;;;3.38;1.20;;;;;;;21.86;43.23;102386.47;4231480;28;20490;-51
2024/01/26 09:18:31;;;;;;;3.45;1.30;;;;;;;21.88;42.86;102386.38;4232021;28;20052;-46
2024/01/26 09:20:48;;;;;;;2.83;1.25;;;;;;;21.94;42.71;102391.38;4231658;28;20040;-49
2024/01/26 09:22:50;;;;;;;3.45;1.10;;;;;;;21.89;42.95;102391.63;4231637;28;20039;-48
2024/01/26 09:24:51;;;;;;;4.00;1.10;;;;;;;21.94;42.85;102392.22;4223772;28;20115;-52
2024/01/26 09:26:55;;;;;;;1.67;1.00;;;;;;;21.93;43.03;102398.53;4215037;28;20122;-50
2024/01/26 09:28:57;;;;;;;3.03;0.90;;;;;;;21.96;43.27;102398.34;4215109;28;20131;-50
2024/01/26 09:30:59;;;;;;;3.08;1.00;;;;;;;22.01;42.90;102406.13;4214277;28;20093;-50
2024/01/26 09:33:00;;;;;;;2.88;0.90;;;;;;;22.00;43.10;102418.66;4213568;28;20039;-50
2024/01/26 09:35:03;;;;;;;;;;;;;;;21.96;42.89;102425.16;4215119;28;20082;-51